FW8982 Weather Reports


Display with metric or nautical units.
time (UTC)temp
F
wind
direction
speed
MPH
gust
MPH
rain 1hr
in
rain 24hr
in
rain mn
in
humidity
%
barometer
mb
20230206061519 22 353 2.0 3.0 0.00 0.00 0.00 78
20230206060519 22 359 1.0 3.0 0.00 0.00 0.00 79
20230206055519 23 359 1.0 3.0 0.00 0.00 0.00 77
20230206054539 22 356 2.0 6.0 0.00 0.00 0.00 78
20230206053020 23 350 2.0 3.0 0.00 0.00 0.00 77
20230206052025 24 358 2.0 3.0 0.00 0.00 0.00 76
20230206051020 23 353 2.0 4.0 0.00 0.00 0.00 77
20230206050020 23 355 2.0 3.0 0.00 0.00 0.00 79
20230206045101 24 13 2.0 3.0 0.00 0.00 0.00 78
20230206044038 24 5 2.0 3.0 0.00 0.00 0.00 76
20230206043018 24 3 3.0 5.0 0.00 0.00 0.00 78
20230206041021 25 360 1.0 3.0 0.00 0.00 0.00 77
20230206040041 25 337 1.0 3.0 0.00 0.00 0.00 77
20230206035039 25 345 1.0 3.0 0.00 0.00 0.00 77
20230206034019 25 359 1.0 3.0 0.00 0.00 0.00 78
20230206032022 25 13 2.0 4.0 0.00 0.00 0.00 77
20230206031019 25 12 2.0 3.0 0.00 0.00 0.00 76
20230206030019 26 2 1.0 3.0 0.00 0.00 0.00 78
20230206025020 26 360 1.0 3.0 0.00 0.00 0.00 77
20230206024019 27 2 3.0 3.0 0.00 0.00 0.00 76
20230206023040 27 10 2.0 4.0 0.00 0.00 0.00 77
20230206022040 27 12 3.0 4.0 0.00 0.00 0.00 75
20230206021017 28 11 3.0 4.0 0.00 0.00 0.00 74
20230206020020 29 355 1.0 3.0 0.00 0.00 0.00 76
20230206015021 30 7 2.0 4.0 0.00 0.00 0.00 73
20230206014021 31 341 1.0 3.0 0.00 0.00 0.00 70
20230206013018 31 339 1.0 3.0 0.00 0.00 0.00 70
20230206012018 32 334 1.0 3.0 0.00 0.00 0.00 69
20230206011018 33 336 1.0 3.0 0.00 0.00 0.00 69
20230206010021 34 354 2.0 5.0 0.00 0.00 0.00 68
20230206005042 35 340 2.0 3.0 0.00 0.00 0.00 64
20230206004019 37 356 1.0 3.0 0.00 0.00 0.00 59
20230206003018 38 353 0.0 2.0 0.00 0.00 0.00 53
20230206002019 40 12 2.0 3.0 0.00 0.00 0.00 55
20230206001019 41 356 1.0 2.0 0.00 0.00 0.00 43
20230206000042 43 234 0.0 1.0 0.00 0.00 0.00 39
20230205235020 44 206 1.0 4.0 0.00 0.00 0.00 35
20230205234019 46 357 0.0 0.0 0.00 0.00 0.00 34
20230205233020 48 202 0.0 2.0 0.00 0.00 0.00 30
20230205232057 48 201 2.0 4.0 0.00 0.00 0.00 32
20230205231120 49 196 0.0 3.0 0.00 0.00 0.00 28
20230205230017 49 190 1.0 4.0 0.00 0.00 0.00 29
20230205225040 48 167 1.0 8.0 0.00 0.00 0.00 29
20230205224020 49 26 1.0 4.0 0.00 0.00 0.00 30
20230205223021 50 164 1.0 5.0 0.00 0.00 0.00 27
20230205222038 49 48 1.0 4.0 0.00 0.00 0.00 29
20230205221038 47 195 1.0 4.0 0.00 0.00 0.00 30
20230205220058 48 172 2.0 6.0 0.00 0.00 0.00 28
20230205215018 47 176 2.0 5.0 0.00 0.00 0.00 29
20230205214019 47 174 1.0 6.0 0.00 0.00 0.00 30
20230205213019 48 177 3.0 9.0 0.00 0.00 0.00 31
20230205212019 48 146 1.0 5.0 0.00 0.00 0.00 31
20230205211039 46 153 2.0 5.0 0.00 0.00 0.00 33
20230205210029 45 190 4.0 6.0 0.00 0.00 0.00 34
20230205205020 46 189 6.0 9.0 0.00 0.00 0.00 35
20230205204020 46 172 3.0 8.0 0.00 0.00 0.00 34
20230205203040 46 196 6.0 9.0 0.00 0.00 0.00 33
20230205202021 45 188 5.0 8.0 0.00 0.00 0.00 32
20230205201020 45 183 6.0 9.0 0.00 0.00 0.00 33
20230205200018 46 174 4.0 9.0 0.00 0.00 0.00 32
20230205195020 46 201 6.0 9.0 0.00 0.00 0.00 33
20230205194021 46 194 5.0 11.0 0.00 0.00 0.00 32
20230205193041 46 165 4.0 8.0 0.00 0.00 0.00 31
20230205192021 46 166 3.0 8.0 0.00 0.00 0.00 31
20230205191021 45 166 3.0 8.0 0.00 0.00 0.00 32
20230205190018 45 185 3.0 6.0 0.00 0.00 0.00 31
20230205185018 44 163 4.0 7.0 0.00 0.00 0.00 32
20230205184019 43 166 4.0 10.0 0.00 0.00 0.00 35
20230205182019 45 198 6.0 10.0 0.00 0.00 0.00 34
20230205181040 45 184 3.0 8.0 0.00 0.00 0.00 33
20230205180019 46 194 2.0 6.0 0.00 0.00 0.00 31
20230205175040 47 139 3.0 6.0 0.00 0.00 0.00 30
20230205174020 46 195 1.0 3.0 0.00 0.00 0.00 30
20230205173019 45 168 2.0 7.0 0.00 0.00 0.00 31
20230205172020 45 113 3.0 6.0 0.00 0.00 0.00 32
20230205171101 43 3 2.0 6.0 0.00 0.00 0.00 34
20230205170021 42 19 3.0 8.0 0.00 0.00 0.00 36
20230205165039 42 41 4.0 9.0 0.00 0.00 0.00 37
20230205164018 41 41 4.0 9.0 0.00 0.00 0.00 38
20230205163021 40 22 4.0 7.0 0.00 0.00 0.00 39
20230205162021 38 31 3.0 6.0 0.00 0.00 0.00 42
20230205161018 36 24 4.0 7.0 0.00 0.00 0.00 45
20230205160024 33 19 3.0 4.0 0.00 0.00 0.00 51
20230205155018 30 4 3.0 6.0 0.00 0.00 0.00 57
20230205154019 27 353 3.0 6.0 0.00 0.00 0.00 63
20230205153039 24 0.0 0.0 0.00 0.00 0.00 69
20230205152019 22 351 2.0 4.0 0.00 0.00 0.00 73
20230205151038 21 339 2.0 4.0 0.00 0.00 0.00 74
20230205150019 20 344 2.0 4.0 0.00 0.00 0.00 76
20230205145019 20 356 1.0 3.0 0.00 0.00 0.00 76
20230205144039 20 342 2.0 3.0 0.00 0.00 0.00 75
20230205143020 20 344 2.0 3.0 0.00 0.00 0.00 76
20230205141040 20 342 2.0 4.0 0.00 0.00 0.00 75
20230205140020 20 351 2.0 3.0 0.00 0.00 0.00 76
20230205135017 19 349 2.0 4.0 0.00 0.00 0.00 76
20230205134017 18 345 2.0 5.0 0.00 0.00 0.00 80
20230205133031 18 355 1.0 2.0 0.00 0.00 0.00 81
20230205132041 18 338 0.0 2.0 0.00 0.00 0.00 81
20230205131018 17 7 1.0 2.0 0.00 0.00 0.00 84
20230205130038 17 6 0.0 2.0 0.00 0.00 0.00 84
20230205125018 18 346 0.0 2.0 0.00 0.00 0.00 83
20230205124034 18 6 0.0 2.0 0.00 0.00 0.00 82
20230205123022 18 350 2.0 3.0 0.00 0.00 0.00 82
20230205122022 18 3 2.0 2.0 0.00 0.00 0.00 83
20230205121020 18 12 2.0 3.0 0.00 0.00 0.00 83
20230205120019 19 12 2.0 3.0 0.00 0.00 0.00 83
20230205115019 20 349 1.0 3.0 0.00 0.00 0.00 82
20230205114039 20 356 1.0 2.0 0.00 0.00 0.00 82
20230205113020 20 351 0.0 2.0 0.00 0.00 0.00 80
20230205112020 21 358 1.0 2.0 0.00 0.00 0.00 80
20230205111100 21 0.0 0.0 0.00 0.00 0.00 78
20230205110020 21 340 2.0 3.0 0.00 0.00 0.00 78
20230205105041 21 343 2.0 4.0 0.00 0.00 0.00 78
20230205104020 21 345 3.0 4.0 0.00 0.00 0.00 79
20230205103018 21 344 2.0 4.0 0.00 0.00 0.00 79
20230205102021 21 342 2.0 3.0 0.00 0.00 0.00 78
20230205101020 21 343 2.0 4.0 0.00 0.00 0.00 79
20230205100018 20 345 2.0 3.0 0.00 0.00 0.00 80
20230205095018 19 347 2.0 4.0 0.00 0.00 0.00 81
20230205094018 19 349 1.0 2.0 0.00 0.00 0.00 83
20230205093018 19 8 0.0 3.0 0.00 0.00 0.00 83
20230205092021 19 3 1.0 3.0 0.00 0.00 0.00 82
20230205091021 20 346 0.0 2.0 0.00 0.00 0.00 82
20230205090039 19 349 1.0 3.0 0.00 0.00 0.00 82
20230205085019 19 4 1.0 3.0 0.00 0.00 0.00 82
20230205084019 19 1 1.0 3.0 0.00 0.00 0.00 83
20230205083020 19 5 1.0 2.0 0.00 0.00 0.00 84
20230205082039 19 21 2.0 4.0 0.00 0.00 0.00 83
20230205081040 21 17 2.0 4.0 0.00 0.00 0.00 80
20230205080019 21 0.0 0.0 0.00 0.00 0.00 82
20230205075020 20 348 1.0 2.0 0.00 0.00 0.00 82
20230205073520 20 359 1.0 3.0 0.00 0.00 0.00 82
20230205072521 20 6 1.0 3.0 0.00 0.00 0.00 82
20230205071520 20 355 1.0 3.0 0.00 0.00 0.00 83
20230205070521 20 5 2.0 3.0 0.00 0.00 0.00 82
20230205065527 20 5 2.0 3.0 0.00 0.00 0.00 83
20230205064518 20 7 2.0 3.0 0.00 0.00 0.00 82
20230205063519 21 15 1.0 3.0 0.00 0.00 0.00 81
20230205062541 23 344 1.0 3.0 0.00 0.00 0.00 79